Sand Point Airport
PASD : now visible

Aeroporto :











RITROVATECI SU...

 
LOGIN :

Iscrizione | Disclaimer

   EN    FR    IT 

 









Sommario :    VFR   VFR Marginale   IFR   IFR Intensivo   IFR Molto Intensivo
Visibilità : 
Base nubi : 
>= 8 km
>= 3000ft
5 / 8 km
1000 / 3000 ft
1500m / 5 km
500 / 1000 ft
800 / 1500m
200 / 500 ft
< 800m
< 200 ft
Simboli :   Temporali  Nebbia  Neve Forte  Precipitazioni Forti  Vento > 20 kt






- Altitudine del aeroporto : 21 ft
- Codice IATA : SDP


PASD - Sand Point

ULTIMO METAR :
  • 011958Z VRB04KT 10SM SCT014 BKN025 OVC033 08/06 A2927 RMK AO2 PNO $

METARs OBSOLETI :
  • 011956Z 08008KT 10SM SCT014 BKN025 OVC033 08/06 A2927 RMK AO2 SLP913 T00830061 PNO $
  • 011903Z VRB05KT 10SM SCT014 BKN023 BKN028 09/06 A2926 RMK AO2 PNO $
  • 011856Z VRB03KT 10SM SCT014 BKN023 BKN028 08/07 A2926 RMK AO2 RAE48 SLP909 T00830067 PNO $
  • 011754Z VRB05KT 10SM -RA SCT014 BKN023 BKN028 08/06 A2925 RMK AO2 RAE1657B50 PNO $

TAF PASD
Valido dal 01 a 18 ore il 02 a 18 ore UTC


011739Z 0118/0218 VRB06KT P6SM VCSH OVC025
TEMPO 0118/0122 5SM -SHRA OVC015
FM020900 02005KT P6SM VCSH OVC035 AMD LTD TO CLD VIS AND WIND
FIR PAZA / America del Nord



MetMap, La meteo Aeronautica in un colpo d'occhio ! - Copyright ORBIFLY Dicembre 2007 - Disclaimer

ORBIFLY MET'MAP TEAM :

Programmazione e sviluppo : Alexandra Zaïnal
Concezione : Baudouin d'Aumeries
Aiuto per la programmazione : Marc-Olivier Méhu
Supporto tecnico e logistico : Manuel Goepfert
Aiuto per la traduzione : Arnaldo La Scala

Contatto : metmap@orbifly.com




FONTI E CREDITI :

   NOAA       Earth
Advisory